Time;durP1;ratioP1;P1;durP2;ratioP2;P2;SDS_P1;SDS_P2;PMS_P1;PMS_P2;Temp;Humidity;BMP_temperature;BMP_pressure;BME280_temperature;BME280_humidity;BME280_pressure;Samples;Min_cycle;Max_cycle;Signal;HPM_P1;HPM_P2
2023/09/29 00:00:51;;;;;;;;;;;;;;;20.33;59.79;100010.19;3158162;28;19971;-77
2023/09/29 00:02:23;;;;;;;;;;;;;;;20.31;59.52;100006.81;3158336;28;19924;-77
2023/09/29 00:03:54;;;;;;;;;;;;;;;20.34;59.41;100003.09;3158792;28;19990;-77
2023/09/29 00:05:26;;;;;;;;;;;;;;;20.35;59.36;100007.41;3152902;28;20361;-77
2023/09/29 00:06:57;;;;;;;;;;;;;;;20.34;59.40;100013.69;3153203;28;19935;-77
2023/09/29 00:08:30;;;;;;;;;;;;;;;20.33;59.47;100004.06;3158789;28;20412;-76
2023/09/29 00:10:01;;;;;;;;;;;;;;;20.31;59.25;100009.47;3158467;28;19931;-76
2023/09/29 00:11:33;;;;;;;;;;;;;;;20.33;59.20;100012.00;3158209;28;19930;-70
2023/09/29 00:13:03;;;;;;;;;;;;;;;20.33;59.19;100007.56;3158065;28;19928;-70
2023/09/29 00:14:35;;;;;;;;;;;;;;;20.34;58.98;100003.09;3158464;28;20027;-70
2023/09/29 00:16:06;;;;;;;;;;;;;;;20.35;59.12;100012.69;3157767;28;19946;-69
2023/09/29 00:17:37;;;;;;;;;;;;;;;20.37;58.68;100010.78;3158074;28;20401;-70
2023/09/29 00:19:09;;;;;;;;;;;;;;;20.40;58.77;100010.53;3158129;28;19988;-70
2023/09/29 00:20:39;;;;;;;;;;;;;;;20.41;58.52;100005.13;3158003;28;19938;-70
2023/09/29 00:22:11;;;;;;;;;;;;;;;20.43;58.58;100011.09;3158286;28;19924;-70
2023/09/29 00:23:43;;;;;;;;;;;;;;;20.43;58.58;100005.81;3157964;28;20028;-70
2023/09/29 00:25:15;;;;;;;;;;;;;;;20.42;58.72;100000.66;3158162;28;19935;-70
2023/09/29 00:26:45;;;;;;;;;;;;;;;20.42;58.35;100009.44;3157552;28;20003;-70
2023/09/29 00:28:17;;;;;;;;;;;;;;;20.43;58.37;100003.16;3157912;28;20369;-70
2023/09/29 00:29:47;;;;;;;;;;;;;;;20.43;58.20;99999.69;3157969;28;20420;-69
2023/09/29 00:31:19;;;;;;;;;;;;;;;20.41;58.45;100007.75;3157842;28;19928;-69
2023/09/29 00:32:50;;;;;;;;;;;;;;;20.42;58.25;100003.31;3157753;28;19936;-69
2023/09/29 00:34:22;;;;;;;;;;;;;;;20.43;58.16;100002.31;3158107;28;19924;-69
2023/09/29 00:35:52;;;;;;;;;;;;;;;20.43;58.31;99999.69;3157675;28;20389;-69
2023/09/29 00:37:25;;;;;;;;;;;;;;;20.42;58.35;100003.31;3158288;28;19988;-69
2023/09/29 00:38:58;;;;;;;;;;;;;;;20.40;58.43;99992.00;3164910;28;19931;-69
2023/09/29 00:40:28;;;;;;;;;;;;;;;20.38;58.20;100004.50;3157574;28;19931;-69
2023/09/29 00:42:00;;;;;;;;;;;;;;;20.37;58.50;99997.56;3157891;28;19987;-69
2023/09/29 00:43:35;;;;;;;;;;;;;;;20.35;58.53;99994.19;3158159;28;19943;-68
2023/09/29 00:45:06;;;;;;;;;;;;;;;20.33;58.41;99999.63;3157192;28;19931;-69
2023/09/29 00:46:39;;;;;;;;;;;;;;;20.31;58.53;99998.06;3158002;28;20415;-69
2023/09/29 00:48:10;;;;;;;;;;;;;;;20.29;58.51;99995.56;3145699;28;19937;-69
2023/09/29 00:49:42;;;;;;;;;;;;;;;20.27;58.50;99994.84;3157502;28;19924;-69
2023/09/29 00:51:13;;;;;;;;;;;;;;;20.25;58.85;99998.56;3157514;28;20416;-69
2023/09/29 00:52:46;;;;;;;;;;;;;;;20.20;59.02;99996.28;3152821;28;20368;-69
2023/09/29 00:54:19;;;;;;;;;;;;;;;20.16;59.14;99993.06;3155326;28;20397;-69
2023/09/29 00:55:49;;;;;;;;;;;;;;;20.13;59.22;99988.03;3157701;28;19979;-69
2023/09/29 00:57:21;;;;;;;;;;;;;;;20.08;59.51;99997.28;3157038;28;20294;-69
2023/09/29 00:58:55;;;;;;;;;;;;;;;20.04;59.70;99991.44;3157742;28;19935;-68
2023/09/29 01:00:31;;;;;;;;;;;;;;;20.02;59.97;99996.00;3157877;28;19924;-68
2023/09/29 01:02:05;;;;;;;;;;;;;;;20.02;59.81;99997.81;3157023;28;19943;-67
2023/09/29 01:03:36;;;;;;;;;;;;;;;19.99;59.87;99994.47;3157762;28;20316;-68
2023/09/29 01:05:10;;;;;;;;;;;;;;;19.96;60.00;99996.50;3154863;28;19932;-70
2023/09/29 01:06:41;;;;;;;;;;;;;;;19.94;60.20;99990.50;3151863;28;19981;-70
2023/09/29 01:08:13;;;;;;;;;;;;;;;19.94;60.06;99993.16;3157665;28;20412;-69
2023/09/29 01:09:47;;;;;;;;;;;;;;;19.93;60.08;99996.75;3157187;28;19924;-69
2023/09/29 01:11:18;;;;;;;;;;;;;;;19.93;60.25;99991.47;3157765;28;19979;-70
2023/09/29 01:12:49;;;;;;;;;;;;;;;19.91;60.08;99994.25;3158003;28;19924;-70
2023/09/29 01:14:20;;;;;;;;;;;;;;;19.92;60.29;99995.06;3158122;28;20289;-70
2023/09/29 01:15:54;;;;;;;;;;;;;;;19.90;60.10;99989.91;3156211;28;19928;-70
2023/09/29 01:17:25;;;;;;;;;;;;;;;19.88;60.26;99983.91;3148879;28;19929;-70
2023/09/29 01:18:58;;;;;;;;;;;;;;;19.89;60.26;99990.03;3157949;28;20020;-71
2023/09/29 01:20:30;;;;;;;;;;;;;;;19.89;59.96;99988.22;3157435;28;19971;-70
2023/09/29 01:22:02;;;;;;;;;;;;;;;19.88;60.29;99988.38;3157796;28;19935;-71
2023/09/29 01:23:35;;;;;;;;;;;;;;;19.85;60.18;99991.25;3157790;28;19924;-70
2023/09/29 01:25:06;;;;;;;;;;;;;;;19.81;60.60;99992.44;3157685;28;19931;-70
2023/09/29 01:26:38;;;;;;;;;;;;;;;19.77;60.69;99986.59;3156929;28;20104;-70
2023/09/29 01:28:10;;;;;;;;;;;;;;;19.75;60.70;99986.69;3157588;28;20328;-71
2023/09/29 01:29:44;;;;;;;;;;;;;;;19.73;60.71;99986.00;3157439;28;19999;-70
2023/09/29 01:31:15;;;;;;;;;;;;;;;19.72;60.67;99989.59;3157084;28;19928;-70
2023/09/29 01:32:46;;;;;;;;;;;;;;;19.75;60.61;99989.34;3149261;28;19924;-71
2023/09/29 01:34:18;;;;;;;;;;;;;;;19.74;60.80;99985.03;3152675;28;19928;-71
2023/09/29 01:35:50;;;;;;;;;;;;;;;19.73;60.48;99986.00;3157360;28;19967;-70
2023/09/29 01:37:21;;;;;;;;;;;;;;;19.72;60.46;99989.59;3157744;28;19935;-71
2023/09/29 01:38:53;;;;;;;;;;;;;;;19.70;60.68;99986.25;3151925;28;19943;-71
2023/09/29 01:40:25;;;;;;;;;;;;;;;19.68;60.68;99985.53;3157434;28;19927;-71
2023/09/29 01:41:56;;;;;;;;;;;;;;;19.66;60.76;99989.25;3157703;28;20029;-71
2023/09/29 01:43:27;;;;;;;;;;;;;;;19.64;60.86;99991.13;3157558;28;20617;-70
2023/09/29 01:44:58;;;;;;;;;;;;;;;19.61;60.99;99994.00;3157314;28;19931;-70
2023/09/29 01:46:30;;;;;;;;;;;;;;;19.59;61.16;99985.38;3157419;28;19934;-70
2023/09/29 01:48:00;;;;;;;;;;;;;;;19.58;61.19;99994.25;3157277;28;20019;-71
2023/09/29 01:49:32;;;;;;;;;;;;;;;19.54;61.00;99991.84;3157731;28;19931;-69
2023/09/29 01:51:03;;;;;;;;;;;;;;;19.52;61.29;99992.94;3157536;28;19928;-70
2023/09/29 01:52:34;;;;;;;;;;;;;;;19.48;61.42;99986.22;3154236;28;19986;-70
2023/09/29 01:54:06;;;;;;;;;;;;;;;19.48;61.22;99996.78;3155635;28;19928;-70
2023/09/29 01:55:39;;;;;;;;;;;;;;;19.47;61.27;99985.41;3157423;28;19924;-69
2023/09/29 01:57:10;;;;;;;;;;;;;;;19.46;61.23;99996.06;3156960;28;19928;-69
2023/09/29 01:58:41;;;;;;;;;;;;;;;19.44;61.40;99995.38;3157651;28;19935;-70
2023/09/29 02:00:14;;;;;;;;;;;;;;;19.41;61.28;100000.91;3157069;28;19924;-70
2023/09/29 02:01:47;;;;;;;;;;;;;;;19.38;61.26;99994.06;3157293;28;19986;-70
2023/09/29 02:03:18;;;;;;;;;;;;;;;19.37;61.48;100000.28;3157511;28;19924;-70
2023/09/29 02:04:49;;;;;;;;;;;;;;;19.38;61.32;99990.56;3157074;28;19932;-70
2023/09/29 02:06:20;;;;;;;;;;;;;;;19.40;61.31;99993.91;3148755;28;19928;-70
2023/09/29 02:07:51;;;;;;;;;;;;;;;19.42;61.12;99994.63;3157257;28;19939;-70
2023/09/29 02:09:26;;;;;;;;;;;;;;;19.40;61.24;99994.75;3157672;28;20011;-70
2023/09/29 02:10:56;;;;;;;;;;;;;;;19.38;61.14;99995.84;3157583;28;19992;-70
2023/09/29 02:12:30;;;;;;;;;;;;;;;19.35;61.26;99990.81;3156604;28;20022;-70
2023/09/29 02:14:02;;;;;;;;;;;;;;;19.32;61.35;99998.00;3149046;28;20382;-70
2023/09/29 02:15:35;;;;;;;;;;;;;;;19.31;61.17;99998.97;3157263;28;19928;-70
2023/09/29 02:17:07;;;;;;;;;;;;;;;19.28;61.50;99990.44;3152472;28;20413;-70
2023/09/29 02:18:38;;;;;;;;;;;;;;;19.29;61.52;99994.78;3157399;28;20061;-67
2023/09/29 02:20:14;;;;;;;;;;;;;;;19.27;61.21;99986.97;3157493;28;20588;-70
2023/09/29 02:21:46;;;;;;;;;;;;;;;19.26;61.38;99998.50;3159852;28;20477;-70
2023/09/29 02:23:16;;;;;;;;;;;;;;;19.24;61.32;99991.66;3159670;28;19924;-70
2023/09/29 02:24:49;;;;;;;;;;;;;;;19.25;61.21;99990.69;3159552;28;20499;-70
2023/09/29 02:26:22;;;;;;;;;;;;;;;19.26;61.39;99985.28;3158933;28;20389;-70
2023/09/29 02:27:54;;;;;;;;;;;;;;;19.28;61.13;99986.00;3158333;28;20007;-70
2023/09/29 02:29:25;;;;;;;;;;;;;;;19.29;61.05;99985.06;3159237;28;19932;-70
2023/09/29 02:30:57;;;;;;;;;;;;;;;19.29;61.36;99989.50;3159049;28;19966;-70
2023/09/29 02:32:28;;;;;;;;;;;;;;;19.28;61.08;99991.28;3159794;28;19928;-70
2023/09/29 02:33:59;;;;;;;;;;;;;;;19.25;61.32;99986.22;3159679;28;19931;-70
2023/09/29 02:35:30;;;;;;;;;;;;;;;19.25;61.37;99990.69;3159299;28;19985;-70
2023/09/29 02:37:02;;;;;;;;;;;;;;;19.24;61.25;99991.66;3159225;28;20081;-70
2023/09/29 02:38:32;;;;;;;;;;;;;;;19.23;61.25;99993.47;3153439;28;20320;-70
2023/09/29 02:40:14;;;;;;;;;;;;;;;19.23;61.36;99987.34;3159408;28;19925;-70
2023/09/29 02:41:45;;;;;;;;;;;;;;;19.24;61.28;99986.38;3159329;28;19928;-70
2023/09/29 02:43:17;;;;;;;;;;;;;;;19.23;61.27;99995.25;3159103;28;20042;-70
2023/09/29 02:44:47;;;;;;;;;;;;;;;19.21;61.48;99994.53;3159479;28;19970;-69
2023/09/29 02:46:20;;;;;;;;;;;;;;;19.21;61.26;99995.38;3159305;28;19924;-69
2023/09/29 02:47:52;;;;;;;;;;;;;;;19.19;61.35;99992.00;3159035;28;19928;-70
2023/09/29 02:49:23;;;;;;;;;;;;;;;19.19;61.35;99997.28;3158927;28;20423;-70
2023/09/29 02:50:55;;;;;;;;;;;;;;;19.20;61.23;99991.06;3159599;28;19928;-70
2023/09/29 02:52:27;;;;;;;;;;;;;;;19.22;61.22;99996.19;3157050;28;19931;-71
2023/09/29 02:53:58;;;;;;;;;;;;;;;19.23;61.08;99995.25;3155386;28;20007;-70
2023/09/29 02:55:30;;;;;;;;;;;;;;;19.24;61.13;99995.13;3159289;28;19997;-70
2023/09/29 02:57:02;;;;;;;;;;;;;;;19.24;60.99;99996.94;3158732;28;19993;-71
2023/09/29 02:58:34;;;;;;;;;;;;;;;19.26;60.92;99997.66;3159225;28;19924;-70
2023/09/29 03:00:23;;;;;;;;;;;;;;;19.24;61.25;99997.75;3156060;28;19939;-69
2023/09/29 03:01:55;;;;;;;;;;;;;;;19.23;61.16;99996.09;3153799;28;19927;-70
2023/09/29 03:03:27;;;;;;;;;;;;;;;19.22;61.24;99988.28;3154066;28;20011;-70
2023/09/29 03:04:59;;;;;;;;;;;;;;;19.21;61.54;99995.38;3152080;28;20516;-70
2023/09/29 03:06:29;;;;;;;;;;;;;;;19.20;61.43;99998.13;3146357;28;19928;-69
2023/09/29 03:08:01;;;;;;;;;;;;;;;19.18;61.69;99995.59;3153881;28;20088;-70
2023/09/29 03:09:33;;;;;;;;;;;;;;;19.17;61.55;99987.81;3149573;28;19943;-70
2023/09/29 03:11:09;;;;;;;;;;;;;;;19.17;61.74;99993.94;3154009;28;19928;-70
2023/09/29 03:12:39;;;;;;;;;;;;;;;19.17;61.68;99993.94;3154128;28;20026;-70
2023/09/29 03:14:11;;;;;;;;;;;;;;;19.18;61.50;99997.41;3153698;28;19928;-70
2023/09/29 03:15:43;;;;;;;;;;;;;;;19.19;61.55;99993.81;3153694;28;20526;-69
2023/09/29 03:17:15;;;;;;;;;;;;;;;19.19;61.70;99996.44;3153961;28;19970;-70
2023/09/29 03:18:46;;;;;;;;;;;;;;;19.21;61.42;99994.53;3154035;28;20724;-70
2023/09/29 03:20:17;;;;;;;;;;;;;;;19.20;61.65;99988.41;3153970;28;20019;-70
2023/09/29 03:21:49;;;;;;;;;;;;;;;19.20;61.48;99995.50;3153702;28;19942;-69
2023/09/29 03:23:20;;;;;;;;;;;;;;;19.18;61.48;99994.78;3153850;28;19982;-70
2023/09/29 03:24:52;;;;;;;;;;;;;;;19.18;61.69;99992.97;3153708;28;20034;-69
2023/09/29 03:26:25;;;;;;;;;;;;;;;19.19;61.59;99994.63;3153380;28;19978;-69
2023/09/29 03:27:56;;;;;;;;;;;;;;;19.20;61.64;99990.22;3153582;28;19928;-69
2023/09/29 03:29:27;;;;;;;;;;;;;;;19.20;61.42;99990.22;3153800;28;19928;-69
2023/09/29 03:31:00;;;;;;;;;;;;;;;19.19;61.47;99984.06;3153114;28;19949;-69
2023/09/29 03:32:30;;;;;;;;;;;;;;;19.19;61.50;99992.00;3153134;28;19980;-69
2023/09/29 03:34:02;;;;;;;;;;;;;;;19.17;61.59;99987.81;3153794;28;20489;-70
2023/09/29 03:35:33;;;;;;;;;;;;;;;19.15;61.81;99987.09;3153745;28;19936;-70
2023/09/29 03:37:05;;;;;;;;;;;;;;;19.15;61.63;99987.94;3153547;28;20019;-70
2023/09/29 03:38:37;;;;;;;;;;;;;;;19.15;61.79;99989.72;3146649;28;19928;-70
2023/09/29 03:40:10;;;;;;;;;;;;;;;19.13;61.89;99989.84;3153118;28;19943;-70
2023/09/29 03:41:43;;;;;;;;;;;;;;;19.14;61.75;99990.66;3153302;28;20344;-70
2023/09/29 03:43:14;;;;;;;;;;;;;;;19.14;61.78;99990.66;3153860;28;19928;-70
2023/09/29 03:44:45;;;;;;;;;;;;;;;19.14;61.77;99991.53;3153729;28;19970;-69
2023/09/29 03:46:17;;;;;;;;;;;;;;;19.14;61.93;99990.66;3153141;28;20079;-69
2023/09/29 03:47:49;;;;;;;;;;;;;;;19.11;62.06;99986.50;3153392;28;20488;-70
2023/09/29 03:49:19;;;;;;;;;;;;;;;19.08;61.85;99989.38;3153678;28;19931;-70
2023/09/29 03:50:51;;;;;;;;;;;;;;;19.09;62.08;99988.41;3153517;28;20396;-69
2023/09/29 03:52:21;;;;;;;;;;;;;;;19.08;62.22;99984.09;3151707;28;19935;-70
2023/09/29 03:53:53;;;;;;;;;;;;;;;19.06;61.99;99986.84;3148342;28;20701;-70
2023/09/29 03:55:24;;;;;;;;;;;;;;;19.08;61.90;99986.72;3153533;28;19928;-69
2023/09/29 03:56:57;;;;;;;;;;;;;;;19.06;62.03;99989.47;3152485;28;19935;-70
2023/09/29 03:58:28;;;;;;;;;;;;;;;19.05;62.22;99985.16;3153384;28;19928;-70
2023/09/29 04:00:00;;;;;;;;;;;;;;;19.02;62.38;99981.94;3153070;28;19928;-70
2023/09/29 04:01:32;;;;;;;;;;;;;;;18.99;62.36;99984.78;3153069;28;19932;-70
2023/09/29 04:03:03;;;;;;;;;;;;;;;18.96;62.68;99982.38;3153089;28;19932;-69
2023/09/29 04:04:34;;;;;;;;;;;;;;;18.93;62.91;99979.97;3153480;28;20411;-70
2023/09/29 04:06:05;;;;;;;;;;;;;;;18.88;62.96;99983.00;3143113;28;20399;-69
2023/09/29 04:07:37;;;;;;;;;;;;;;;18.86;62.92;99985.72;3153194;28;19992;-70
2023/09/29 04:09:08;;;;;;;;;;;;;;;18.83;63.22;99972.78;3153325;28;19928;-70
2023/09/29 04:10:39;;;;;;;;;;;;;;;18.78;63.37;99972.31;3153164;28;19928;-70
2023/09/29 04:12:12;;;;;;;;;;;;;;;18.76;63.50;99981.28;3153147;28;19936;-70
2023/09/29 04:13:44;;;;;;;;;;;;;;;18.72;63.60;99978.00;3153471;28;19978;-69
2023/09/29 04:15:15;;;;;;;;;;;;;;;18.69;63.73;99975.59;3152811;28;19932;-70
2023/09/29 04:16:46;;;;;;;;;;;;;;;18.69;63.57;99975.59;3153087;28;20513;-70
2023/09/29 04:18:17;;;;;;;;;;;;;;;18.69;63.43;99977.38;3153134;28;20567;-69
2023/09/29 04:19:49;;;;;;;;;;;;;;;18.69;63.76;99966.84;3152901;28;19928;-70
2023/09/29 04:21:20;;;;;;;;;;;;;;;18.69;63.67;99967.69;3152298;28;19928;-70
2023/09/29 04:22:51;;;;;;;;;;;;;;;18.71;63.43;99965.78;3152853;28;20450;-70
2023/09/29 04:24:22;;;;;;;;;;;;;;;18.73;63.29;99969.19;3153115;28;20050;-70
2023/09/29 04:25:53;;;;;;;;;;;;;;;18.77;63.15;99980.31;3152782;28;20261;-70
2023/09/29 04:27:26;;;;;;;;;;;;;;;18.77;63.11;99970.59;3152346;28;19935;-69
2023/09/29 04:28:58;;;;;;;;;;;;;;;18.77;62.99;99973.25;3147232;28;20118;-69
2023/09/29 04:30:29;;;;;;;;;;;;;;;18.80;62.92;99969.53;3152691;28;20534;-70
2023/09/29 04:32:01;;;;;;;;;;;;;;;18.81;62.98;99974.72;3152847;28;19949;-70
2023/09/29 04:33:31;;;;;;;;;;;;;;;18.83;62.68;99977.22;3152584;28;19993;-70
2023/09/29 04:35:03;;;;;;;;;;;;;;;18.83;62.61;99980.69;3152815;28;20366;-69
2023/09/29 04:36:33;;;;;;;;;;;;;;;18.85;62.53;99983.22;3152543;28;20050;-70
2023/09/29 04:38:05;;;;;;;;;;;;;;;18.84;62.59;99985.03;3152428;28;19928;-69
2023/09/29 04:39:36;;;;;;;;;;;;;;;18.84;62.44;99978.88;3148117;28;19928;-67
2023/09/29 04:41:08;;;;;;;;;;;;;;;18.84;62.46;99979.75;3152873;28;19932;-68
2023/09/29 04:42:40;;;;;;;;;;;;;;;18.84;62.32;99982.38;3152994;28;19928;-68
2023/09/29 04:44:12;;;;;;;;;;;;;;;18.86;62.43;99980.44;3152702;28;19975;-69
2023/09/29 04:45:43;;;;;;;;;;;;;;;18.86;62.46;99980.44;3152237;28;19952;-69
2023/09/29 04:47:14;;;;;;;;;;;;;;;18.88;62.36;99982.16;3151999;28;19932;-76
2023/09/29 04:48:46;;;;;;;;;;;;;;;18.88;62.45;99977.72;3153006;28;20101;-68
2023/09/29 04:50:16;;;;;;;;;;;;;;;18.88;62.27;99987.44;3152892;28;19928;-69
2023/09/29 04:51:48;;;;;;;;;;;;;;;18.91;62.31;99981.91;3152794;28;20477;-69
2023/09/29 04:53:18;;;;;;;;;;;;;;;18.95;62.11;99980.72;3146729;28;19989;-67
2023/09/29 04:54:50;;;;;;;;;;;;;;;18.97;61.76;99978.81;3152870;28;20121;-68
2023/09/29 04:56:31;;;;;;;;;;;;;;;19.01;61.86;99983.72;3147758;28;20300;-71
2023/09/29 04:58:06;;;;;;;;;;;;;;;19.05;61.42;99989.63;3152032;28;19932;-70
2023/09/29 04:59:42;;;;;;;;;;;;;;;19.06;61.74;99993.91;3152403;28;19932;-67
2023/09/29 05:01:27;;;;;;;;;;;;;;;19.07;61.53;99992.94;3151805;28;20341;-66
2023/09/29 05:03:13;;;;;;;;;;;;;;;;;;;;;
2023/09/29 05:04:45;;;;;;;;;;;;;;;19.11;61.46;99991.78;3149737;28;19943;-67
2023/09/29 05:06:16;;;;;;;;;;;;;;;19.10;61.37;99993.56;3151464;28;20007;-66
2023/09/29 05:07:47;;;;;;;;;;;;;;;19.13;61.36;99986.34;3152395;28;20423;-68
2023/09/29 05:09:18;;;;;;;;;;;;;;;19.15;61.19;99989.72;3147265;28;19928;-71
2023/09/29 05:10:50;;;;;;;;;;;;;;;19.14;61.04;99986.25;3151380;28;19943;-70
2023/09/29 05:12:31;;;;;;;;;;;;;;;19.13;61.11;99987.19;3152729;28;20321;-68
2023/09/29 05:14:03;;;;;;;;;;;;;;;19.14;61.30;99983.63;3152245;28;20076;-69
2023/09/29 05:15:36;;;;;;;;;;;;;;;19.18;60.88;99989.50;3152173;28;19928;-68
2023/09/29 05:17:07;;;;;;;;;;;;;;;19.22;61.02;99990.91;3152349;28;20035;-73
2023/09/29 05:18:39;;;;;;;;;;;;;;;19.26;60.70;99981.81;3152441;28;19954;-76
2023/09/29 05:20:10;;;;;;;;;;;;;;;19.30;60.70;99991.16;3152237;28;19928;-68
2023/09/29 05:21:42;;;;;;;;;;;;;;;19.33;60.51;99991.75;3143771;28;20397;-70
2023/09/29 05:23:13;;;;;;;;;;;;;;;19.36;60.39;99987.22;3145975;28;19990;-73
2023/09/29 05:24:44;;;;;;;;;;;;;;;19.39;60.37;99989.59;3148785;28;20007;-72
2023/09/29 05:26:15;;;;;;;;;;;;;;;19.43;60.28;99983.09;3152115;28;19985;-73
2023/09/29 05:27:47;;;;;;;;;;;;;;;19.46;60.01;99980.22;3151952;28;20552;-72
2023/09/29 05:29:19;;;;;;;;;;;;;;;19.51;60.01;99985.97;3147818;28;20030;-73
2023/09/29 05:30:54;;;;;;;;;;;;;;;19.56;59.83;99983.81;3152070;28;19928;-67
2023/09/29 05:32:25;;;;;;;;;;;;;;;19.60;59.67;99985.25;3152807;28;20452;-70
2023/09/29 05:33:56;;;;;;;;;;;;;;;19.63;59.43;99985.00;3141295;28;20285;-72
2023/09/29 05:35:27;;;;;;;;;;;;;;;19.66;59.55;99983.97;3150098;28;19959;-67
2023/09/29 05:36:59;;;;;;;;;;;;;;;19.68;59.26;99988.16;3152422;28;20701;-70
2023/09/29 05:38:29;;;;;;;;;;;;;;;19.71;59.10;99977.34;3150681;28;19935;-68
2023/09/29 05:40:03;;;;;;;;;;;;;;;19.78;59.00;99983.81;3152001;28;19928;-68
2023/09/29 05:41:34;;;;;;;;;;;;;;;19.85;58.72;99993.91;3152393;28;19928;-70
2023/09/29 05:43:09;;;;;;;;;;;;;;;19.89;58.64;99987.41;3152496;28;20413;-71
2023/09/29 05:44:41;;;;;;;;;;;;;;;19.95;58.34;99989.53;3152487;28;19947;-71
2023/09/29 05:46:13;;;;;;;;;;;;;;;20.00;58.17;99993.50;3151856;28;19928;-69
2023/09/29 05:47:46;;;;;;;;;;;;;;;20.09;58.38;99994.53;3152206;28;20397;-69
2023/09/29 05:49:18;;;;;;;;;;;;;;;20.18;57.73;99996.44;3152183;28;19939;-69
2023/09/29 05:50:50;;;;;;;;;;;;;;;20.26;57.72;99998.47;3147365;28;19928;-68
2023/09/29 05:52:22;;;;;;;;;;;;;;;20.33;57.30;99998.78;3140418;28;19928;-71
2023/09/29 05:53:53;;;;;;;;;;;;;;;20.41;57.23;99994.53;3143259;28;20026;-69
2023/09/29 05:55:25;;;;;;;;;;;;;;;20.50;56.83;99998.22;3153001;28;20035;-70
2023/09/29 05:56:56;;;;;;;;;;;;;;;20.60;56.68;100000.97;3153683;28;19963;-67
2023/09/29 05:58:28;;;;;;;;;;;;;;;20.71;56.43;99998.25;3147441;28;19971;-71
2023/09/29 06:00:01;;;;;;;;;;;;;;;20.83;56.08;100006.97;3154574;28;19947;-68
2023/09/29 06:01:32;;;;;;;;;;;;;;;20.94;55.46;99998.97;3153853;28;19928;-70
2023/09/29 06:03:04;;;;;;;;;;;;;;;21.04;55.36;99999.00;3154495;28;19939;-77
2023/09/29 06:04:35;;;;;;;;;;;;;;;21.16;54.89;100008.53;3154590;28;19935;-78
2023/09/29 06:06:08;;;;;;;;;;;;;;;21.26;54.43;100004.13;3143843;28;19928;-72
2023/09/29 06:07:39;;;;;;;;;;;;;;;21.35;53.79;100000.69;3142155;28;20682;-73
2023/09/29 06:09:11;;;;;;;;;;;;;;;21.44;53.22;99995.56;3153816;28;19939;-74
2023/09/29 06:10:42;;;;;;;;;;;;;;;21.55;53.27;99992.81;3154844;28;19935;-72
2023/09/29 06:12:13;;;;;;;;;;;;;;;21.65;52.83;99995.50;3151560;28;19932;-70
2023/09/29 06:13:44;;;;;;;;;;;;;;;21.77;52.34;99999.72;3154401;28;19928;-71
2023/09/29 06:15:17;;;;;;;;;;;;;;;21.89;52.10;99998.63;3154219;28;20442;-71
2023/09/29 06:16:48;;;;;;;;;;;;;;;22.01;51.84;99992.22;3154533;28;19928;-72
2023/09/29 06:18:20;;;;;;;;;;;;;;;22.18;51.06;99995.19;3154477;28;19955;-71
2023/09/29 06:19:51;;;;;;;;;;;;;;;22.40;51.52;99991.44;3154412;28;19935;-71
2023/09/29 06:21:22;;;;;;;;;;;;;;;22.62;50.91;100001.72;3154440;28;19928;-71
2023/09/29 06:22:53;;;;;;;;;;;;;;;22.83;50.29;99993.59;3154289;28;19939;-71
2023/09/29 06:24:25;;;;;;;;;;;;;;;23.09;50.21;99995.66;3154131;28;20190;-68
2023/09/29 06:25:56;;;;;;;;;;;;;;;23.37;49.57;99997.38;3154028;28;19971;-69
2023/09/29 06:27:28;;;;;;;;;;;;;;;23.64;48.68;99995.69;3155198;28;19928;-69
2023/09/29 06:29:00;;;;;;;;;;;;;;;23.80;47.94;99987.91;3152348;28;19974;-75
2023/09/29 06:30:35;;;;;;;;;;;;;;;23.86;46.63;99988.31;3157375;28;19932;-69
2023/09/29 06:32:06;;;;;;;;;;;;;;;23.91;46.80;99992.19;3154367;28;19928;-72
2023/09/29 06:33:37;;;;;;;;;;;;;;;24.08;45.96;99995.88;3159000;28;20423;-67
2023/09/29 06:35:09;;;;;;;;;;;;;;;24.24;45.55;99997.81;3158954;28;19932;-73
2023/09/29 06:36:41;;;;;;;;;;;;;;;24.45;44.97;100005.53;3158812;28;19934;-68
2023/09/29 06:38:11;;;;;;;;;;;;;;;24.64;44.50;100004.50;3154057;28;19928;-64
2023/09/29 06:39:43;;;;;;;;;;;;;;;24.90;43.90;99992.03;3159329;28;19930;-65
2023/09/29 06:41:14;;;;;;;;;;;;;;;25.02;43.68;100003.25;3158963;28;20045;-66
2023/09/29 06:42:45;;;;;;;;;;;;;;;25.10;42.97;100005.97;3158939;28;19928;-67
2023/09/29 06:44:17;;;;;;;;;;;;;;;25.29;43.39;99996.09;3159373;28;20358;-64
2023/09/29 06:45:49;;;;;;;;;;;;;;;25.51;42.69;99998.22;3158512;28;20545;-65
2023/09/29 06:47:21;;;;;;;;;;;;;;;25.53;41.74;99995.41;3158638;28;19967;-64
2023/09/29 06:48:52;;;;;;;;;;;;;;;25.48;42.03;100005.69;3158526;28;19989;-64
2023/09/29 06:50:24;;;;;;;;;;;;;;;25.54;41.47;100003.22;3158627;28;20428;-64
2023/09/29 06:51:54;;;;;;;;;;;;;;;25.71;41.29;99998.78;3158665;28;20344;-63
2023/09/29 06:53:28;;;;;;;;;;;;;;;25.85;40.90;100006.19;3159012;28;19924;-66
2023/09/29 06:54:59;;;;;;;;;;;;;;;26.00;40.97;100003.72;3149733;28;19932;-67
2023/09/29 06:56:30;;;;;;;;;;;;;;;26.14;40.75;100006.72;3158629;28;20042;-66
2023/09/29 06:58:03;;;;;;;;;;;;;;;26.21;40.44;100005.91;3158960;28;19925;-63
2023/09/29 06:59:35;;;;;;;;;;;;;;;26.40;40.85;100002.09;3155629;28;19928;-65
2023/09/29 07:01:19;;;;;;;;;;;;;;;26.53;39.62;100005.13;3158472;28;19978;-66
2023/09/29 07:03:45;;;;;;;;;;;;;;;;;;;;;
2023/09/29 07:05:58;;;;;;;;;;;;;;;26.68;39.31;100012.44;3154294;28;19924;-65
2023/09/29 07:07:34;;;;;;;;;;;;;;;27.06;39.06;100005.53;3141144;28;20024;-66
2023/09/29 07:09:32;;;;;;;;;;;;;;;27.34;38.45;100003.31;3158423;28;19997;-65
2023/09/29 07:13:20;;;;;;;;;;;;;;;28.12;36.90;100002.41;3137830;28;19933;-65
2023/09/29 07:14:58;;;;;;;;;;;;;;;28.31;36.39;99998.44;3158831;28;19932;-65
2023/09/29 07:21:08;;;;;;;;;;;;;;;27.82;35.76;100006.78;3145520;28;19932;-65
2023/09/29 07:22:39;;;;;;;;;;;;;;;27.68;35.49;99999.47;3158571;28;19932;-64
2023/09/29 07:24:17;;;;;;;;;;;;;;;27.51;35.51;100003.25;3158774;28;19934;-64
2023/09/29 07:25:54;;;;;;;;;;;;;;;27.44;35.90;100006.59;3158545;28;19986;-64
2023/09/29 07:27:31;;;;;;;;;;;;;;;27.36;35.67;100001.31;3157616;28;19953;-63
2023/09/29 07:29:17;;;;;;;;;;;;;;;27.16;35.91;100000.03;3158227;28;20265;-63
2023/09/29 07:30:50;;;;;;;;;;;;;;;26.90;35.96;100001.06;3158114;28;19924;-66
2023/09/29 07:32:24;;;;;;;;;;;;;;;26.69;36.10;100006.13;3158573;28;19931;-63
2023/09/29 07:33:56;;;;;;;;;;;;;;;26.53;36.06;99999.78;3158889;28;19962;-63
2023/09/29 07:35:26;;;;;;;;;;;;;;;26.35;36.19;99999.06;3158327;28;19935;-61
2023/09/29 07:36:59;;;;;;;;;;;;;;;26.21;36.38;100000.59;3158398;28;19932;-63
2023/09/29 07:38:30;;;;;;;;;;;;;;;26.07;36.60;99999.38;3157196;28;19958;-63
2023/09/29 07:40:02;;;;;;;;;;;;;;;25.95;36.33;100000.72;3158437;28;20449;-63
2023/09/29 07:41:33;;;;;;;;;;;;;;;25.90;36.83;100007.53;3158073;28;19927;-63
2023/09/29 07:43:05;;;;;;;;;;;;;;;25.85;36.43;100000.00;3158594;28;19927;-63
2023/09/29 07:44:36;;;;;;;;;;;;;;;25.82;36.86;100000.31;3158550;28;19924;-62
2023/09/29 07:46:07;;;;;;;;;;;;;;;25.77;36.38;99997.31;3158010;28;20011;-64
2023/09/29 07:47:41;;;;;;;;;;;;;;;25.89;36.54;99998.69;3155650;28;19928;-71
2023/09/29 07:49:23;;;;;;;;;;;;;;;26.14;35.64;99999.56;3152853;28;19924;-71
2023/09/29 07:50:54;;;;;;;;;;;;;;;26.43;35.86;99995.59;3151490;28;19925;-72
2023/09/29 07:52:28;;;;;;;;;;;;;;;26.70;35.06;99999.75;3157924;28;20000;-70
2023/09/29 07:54:00;;;;;;;;;;;;;;;27.11;34.20;99994.34;3158248;28;19981;-64
2023/09/29 07:55:32;;;;;;;;;;;;;;;27.28;33.33;100006.69;3157947;28;20394;-65
2023/09/29 07:57:03;;;;;;;;;;;;;;;27.47;33.43;100001.94;3157812;28;20011;-68
2023/09/29 07:58:35;;;;;;;;;;;;;;;27.76;33.09;99994.09;3145737;28;19933;-66
2023/09/29 08:00:08;;;;;;;;;;;;;;;28.21;32.62;100000.50;3157982;28;20362;-70
2023/09/29 08:01:42;;;;;;;;;;;;;;;28.61;32.04;100003.09;3152379;28;20008;-69
2023/09/29 08:03:14;;;;;;;;;;;;;;;28.74;31.35;99997.94;3154333;28;19931;-69
2023/09/29 08:04:44;;;;;;;;;;;;;;;28.77;31.21;99997.56;3150386;28;19939;-69
2023/09/29 08:06:17;;;;;;;;;;;;;;;28.65;31.15;99997.16;3155169;28;20058;-69
2023/09/29 08:07:49;;;;;;;;;;;;;;;28.71;31.51;99996.44;3152413;28;19980;-70
2023/09/29 08:09:21;;;;;;;;;;;;;;;28.92;31.49;100000.25;3158074;28;20015;-68